createdAt,value
2022-11-03T00:02:01.045Z,2.10
2022-11-03T00:04:28.001Z,2.47
2022-11-03T00:06:55.276Z,2.27
2022-11-03T00:09:23.465Z,2.23
2022-11-03T00:11:51.139Z,2.10
2022-11-03T00:14:18.242Z,2.00
2022-11-03T00:16:45.096Z,1.87
2022-11-03T00:19:13.640Z,2.10
2022-11-03T00:21:40.216Z,2.13
2022-11-03T00:24:06.969Z,2.23
2022-11-03T00:26:35.023Z,2.43
2022-11-03T00:29:12.262Z,2.27
2022-11-03T00:31:40.955Z,2.47
2022-11-03T00:34:08.331Z,2.43
2022-11-03T00:36:37.132Z,2.10
2022-11-03T00:39:04.672Z,2.60
2022-11-03T00:41:31.979Z,2.13
2022-11-03T00:43:58.648Z,2.07
2022-11-03T00:46:25.824Z,2.30
2022-11-03T00:48:52.609Z,2.60
2022-11-03T00:51:22.268Z,2.80
2022-11-03T00:53:51.955Z,2.73
2022-11-03T00:56:20.900Z,2.20
2022-11-03T00:58:47.746Z,2.23
2022-11-03T01:01:20.734Z,2.40
2022-11-03T01:04:08.733Z,2.10
2022-11-03T01:06:50.165Z,1.90
2022-11-03T01:09:24.039Z,2.30
2022-11-03T01:11:59.935Z,2.20
2022-11-03T01:14:38.696Z,2.63
2022-11-03T01:17:10.418Z,2.00
2022-11-03T01:19:37.059Z,2.43
2022-11-03T01:22:06.513Z,2.40
2022-11-03T01:24:36.307Z,2.50
2022-11-03T01:27:02.875Z,2.20
2022-11-03T01:29:29.513Z,2.33
2022-11-03T01:31:59.521Z,1.80
2022-11-03T01:34:26.272Z,2.90
2022-11-03T01:36:55.193Z,2.47
2022-11-03T01:39:21.815Z,2.70
2022-11-03T01:41:50.689Z,2.00
2022-11-03T01:44:17.195Z,2.47
2022-11-03T01:46:48.570Z,2.30
2022-11-03T01:49:15.094Z,2.47
2022-11-03T01:51:43.255Z,2.20
2022-11-03T01:54:12.219Z,2.50
2022-11-03T01:56:41.654Z,2.70
2022-11-03T01:59:08.468Z,2.63
2022-11-03T02:01:35.217Z,2.70
2022-11-03T02:04:08.544Z,2.17
2022-11-03T02:06:36.548Z,2.70
2022-11-03T02:09:05.678Z,2.50
2022-11-03T02:11:51.884Z,2.40
2022-11-03T02:14:28.338Z,2.23
2022-11-03T02:16:57.382Z,2.60
2022-11-03T02:19:27.028Z,2.43
2022-11-03T02:22:20.844Z,2.30
2022-11-03T02:25:00.938Z,2.50
2022-11-03T02:27:27.557Z,2.60
2022-11-03T02:29:54.800Z,2.63
2022-11-03T02:32:23.205Z,2.50
2022-11-03T02:35:34.244Z,2.20
2022-11-03T02:38:02.915Z,2.07
2022-11-03T02:40:33.395Z,2.20
2022-11-03T02:43:02.295Z,2.53
2022-11-03T02:45:29.296Z,2.30
2022-11-03T02:47:59.025Z,1.80
2022-11-03T02:50:31.198Z,2.80
2022-11-03T02:52:57.857Z,2.83
2022-11-03T02:55:52.957Z,2.30
2022-11-03T02:58:23.303Z,2.33
2022-11-03T03:00:58.912Z,2.30
2022-11-03T03:03:30.671Z,2.83
2022-11-03T03:06:02.536Z,2.13
2022-11-03T03:08:32.214Z,2.60
2022-11-03T03:11:01.367Z,2.50
2022-11-03T03:13:30.318Z,2.73
2022-11-03T03:16:02.872Z,2.07
2022-11-03T03:18:35.594Z,2.37
2022-11-03T03:21:06.284Z,2.40
2022-11-03T03:23:36.449Z,2.63
2022-11-03T03:26:15.824Z,3.00
2022-11-03T03:29:08.583Z,2.40
2022-11-03T03:31:39.784Z,2.47
2022-11-03T03:34:23.663Z,2.10
2022-11-03T03:36:55.163Z,2.50
2022-11-03T03:39:25.476Z,2.53
2022-11-03T03:41:53.033Z,2.83
2022-11-03T03:44:20.212Z,3.07
2022-11-03T03:46:54.863Z,2.70
2022-11-03T03:49:21.666Z,2.57
2022-11-03T03:51:48.661Z,2.77
2022-11-03T03:54:15.264Z,3.30
2022-11-03T03:56:45.788Z,2.40
2022-11-03T03:59:12.456Z,2.53
2022-11-03T04:01:39.109Z,2.70
2022-11-03T04:04:05.763Z,2.20
2022-11-03T04:06:32.411Z,2.53
2022-11-03T04:08:59.046Z,2.50
2022-11-03T04:11:44.203Z,2.40
2022-11-03T04:14:29.447Z,2.30
2022-11-03T04:17:14.676Z,2.60
2022-11-03T04:19:59.866Z,2.90
2022-11-03T04:22:30.475Z,2.90
2022-11-03T04:24:58.388Z,2.30
2022-11-03T04:27:38.326Z,2.87
2022-11-03T04:30:19.447Z,3.10
2022-11-03T04:32:50.015Z,2.77
2022-11-03T04:35:28.114Z,2.90
2022-11-03T04:37:59.579Z,3.33
2022-11-03T04:40:26.367Z,2.33
2022-11-03T04:42:53.233Z,2.60
2022-11-03T04:45:34.077Z,2.63
2022-11-03T04:48:02.879Z,2.83
2022-11-03T04:50:29.489Z,2.50
2022-11-03T04:52:57.859Z,2.50
2022-11-03T04:55:25.217Z,2.90
2022-11-03T04:57:56.847Z,3.10
2022-11-03T05:00:25.013Z,2.93
2022-11-03T05:02:55.854Z,2.93
2022-11-03T05:05:25.497Z,2.70
2022-11-03T05:07:57.360Z,3.10
2022-11-03T05:10:28.491Z,3.00
2022-11-03T05:12:55.795Z,2.83
2022-11-03T05:15:38.473Z,2.57
2022-11-03T05:18:16.071Z,2.70
2022-11-03T05:20:57.330Z,3.00
2022-11-03T05:23:24.211Z,2.70
2022-11-03T05:25:53.303Z,3.10
2022-11-03T05:28:25.625Z,2.87
2022-11-03T05:30:53.038Z,3.43
2022-11-03T05:33:31.299Z,2.80
2022-11-03T05:36:01.234Z,2.90
2022-11-03T05:38:30.890Z,3.10
2022-11-03T05:40:57.690Z,2.70
2022-11-03T05:43:24.389Z,2.80
2022-11-03T05:45:55.015Z,2.97
2022-11-03T05:48:43.951Z,2.70
2022-11-03T05:51:22.569Z,2.83
2022-11-03T05:53:55.300Z,2.67
2022-11-03T05:56:24.522Z,2.40
2022-11-03T05:58:52.696Z,2.83
2022-11-03T06:01:20.599Z,2.80
2022-11-03T06:03:47.454Z,3.00
2022-11-03T06:06:31.828Z,2.87
2022-11-03T06:09:01.419Z,3.00
2022-11-03T06:11:36.696Z,2.90
2022-11-03T06:14:16.574Z,3.10
2022-11-03T06:16:48.343Z,2.90
2022-11-03T06:19:23.462Z,3.10
2022-11-03T06:21:52.320Z,2.73
2022-11-03T06:24:23.535Z,2.93
2022-11-03T06:26:52.323Z,3.30
2022-11-03T06:29:20.329Z,2.53
2022-11-03T06:31:51.486Z,3.27
2022-11-03T06:34:34.585Z,2.80
2022-11-03T06:37:13.534Z,3.30
2022-11-03T06:39:40.394Z,2.63
2022-11-03T06:42:16.877Z,3.27
2022-11-03T06:44:48.909Z,3.00
2022-11-03T06:47:23.848Z,3.13
2022-11-03T06:49:52.211Z,2.57
2022-11-03T06:52:27.830Z,3.70
2022-11-03T06:55:16.740Z,3.30
2022-11-03T06:57:46.759Z,2.90
2022-11-03T07:00:41.096Z,2.90
2022-11-03T07:03:20.648Z,3.13
2022-11-03T07:05:47.609Z,3.27
2022-11-03T07:08:25.532Z,2.90
2022-11-03T07:11:11.119Z,3.27
2022-11-03T07:13:37.754Z,2.70
2022-11-03T07:16:04.722Z,3.20
2022-11-03T07:18:35.998Z,2.43
2022-11-03T07:21:15.652Z,3.10
2022-11-03T07:23:44.796Z,3.20
2022-11-03T07:26:13.835Z,2.80
2022-11-03T07:28:40.514Z,2.83
2022-11-03T07:31:20.039Z,2.90
2022-11-03T07:33:46.665Z,2.67
2022-11-03T07:36:19.086Z,3.13
2022-11-03T07:38:48.229Z,2.90
2022-11-03T07:41:31.133Z,2.60
2022-11-03T07:44:01.121Z,2.73
2022-11-03T07:46:27.921Z,2.63
2022-11-03T07:48:58.472Z,3.10
2022-11-03T07:51:31.660Z,2.80
2022-11-03T07:54:20.067Z,3.20
2022-11-03T07:56:49.020Z,2.40
2022-11-03T07:59:40.491Z,3.03
2022-11-03T08:02:32.018Z,2.50
2022-11-03T08:04:59.270Z,2.70
2022-11-03T08:07:26.147Z,2.80
2022-11-03T08:09:52.798Z,2.70
2022-11-03T08:12:19.638Z,3.00
2022-11-03T08:14:46.858Z,2.90
2022-11-03T08:17:16.021Z,2.87
2022-11-03T08:19:42.653Z,2.90
2022-11-03T08:22:09.307Z,3.03
2022-11-03T08:24:35.834Z,3.40
2022-11-03T08:27:03.544Z,3.27
2022-11-03T08:29:30.247Z,3.10
2022-11-03T08:31:56.822Z,2.67
2022-11-03T08:34:23.418Z,2.70
2022-11-03T08:36:50.006Z,2.60
2022-11-03T08:39:17.267Z,3.40
2022-11-03T08:41:43.855Z,2.90
2022-11-03T08:44:10.460Z,2.57
2022-11-03T08:46:37.153Z,3.10
2022-11-03T08:49:03.750Z,2.80
2022-11-03T08:51:30.360Z,3.23
2022-11-03T08:53:56.992Z,2.87
2022-11-03T08:56:23.741Z,2.90
2022-11-03T08:58:50.609Z,3.07
2022-11-03T09:01:17.401Z,2.20
2022-11-03T09:03:44.115Z,2.70
2022-11-03T09:06:10.966Z,3.17
2022-11-03T09:11:24.196Z,2.97
2022-11-03T09:13:50.784Z,3.20
2022-11-03T09:16:17.395Z,2.93
2022-11-03T09:18:46.282Z,3.03
2022-11-03T09:21:14.776Z,2.70
2022-11-03T09:23:41.529Z,3.20
2022-11-03T09:26:08.163Z,2.93
2022-11-03T09:28:34.775Z,2.50
2022-11-03T09:31:02.838Z,3.03
2022-11-03T09:33:29.507Z,2.80
2022-11-03T09:35:56.164Z,2.60
2022-11-03T09:38:23.202Z,3.37
2022-11-03T09:40:50.239Z,3.20
2022-11-03T09:43:16.917Z,3.13
2022-11-03T09:45:43.531Z,2.97
2022-11-03T09:48:11.299Z,2.90
2022-11-03T09:50:38.158Z,2.80
2022-11-03T09:53:05.454Z,2.73
2022-11-03T09:55:33.652Z,3.00
2022-11-03T09:58:11.321Z,2.90
2022-11-03T10:00:37.876Z,2.50
2022-11-03T10:03:07.530Z,2.90
2022-11-03T10:05:34.489Z,2.50
2022-11-03T10:08:04.458Z,2.90
2022-11-03T10:10:32.037Z,2.87
2022-11-03T10:12:59.830Z,2.93
2022-11-03T10:15:29.050Z,2.80
2022-11-03T10:17:56.024Z,2.60
2022-11-03T10:20:22.899Z,2.50
2022-11-03T10:22:53.760Z,2.60
2022-11-03T10:25:35.437Z,2.33
2022-11-03T10:28:18.255Z,3.20
2022-11-03T10:31:10.514Z,2.80
2022-11-03T10:33:40.711Z,2.90
2022-11-03T10:36:16.489Z,2.70
2022-11-03T10:38:45.906Z,2.43
2022-11-03T10:41:29.412Z,3.00
2022-11-03T10:44:19.648Z,2.80
2022-11-03T10:46:56.801Z,2.30
2022-11-03T10:49:23.568Z,2.70
2022-11-03T10:51:52.419Z,2.73
2022-11-03T10:54:21.957Z,2.93
2022-11-03T10:56:51.067Z,2.97
2022-11-03T10:59:20.113Z,2.77
2022-11-03T11:01:47.206Z,3.00
2022-11-03T11:04:18.751Z,2.70
2022-11-03T11:06:46.265Z,2.60
2022-11-03T11:09:15.388Z,2.70
2022-11-03T11:12:05.762Z,2.60
2022-11-03T11:14:39.265Z,2.60
2022-11-03T11:17:06.346Z,2.67
2022-11-03T11:20:11.640Z,2.90
2022-11-03T11:22:38.226Z,3.13
2022-11-03T11:25:04.933Z,2.87
2022-11-03T11:27:34.388Z,2.97
2022-11-03T11:30:04.972Z,2.60
2022-11-03T11:32:48.107Z,2.70
2022-11-03T11:35:26.182Z,3.13
2022-11-03T11:37:53.901Z,3.10
2022-11-03T11:40:23.502Z,4.00
2022-11-03T11:43:02.342Z,3.23
2022-11-03T11:46:23.613Z,3.50
2022-11-03T11:48:59.268Z,2.70
2022-11-03T11:51:26.065Z,2.40
2022-11-03T11:54:09.953Z,2.73
2022-11-03T11:56:46.965Z,3.20
2022-11-03T11:59:24.232Z,2.83
2022-11-03T12:01:55.597Z,2.60
2022-11-03T12:04:25.511Z,2.80
2022-11-03T12:06:55.832Z,2.70
2022-11-03T12:09:24.986Z,3.13
2022-11-03T12:11:56.285Z,2.53
2022-11-03T12:14:24.677Z,3.20
2022-11-03T12:16:52.267Z,2.87
2022-11-03T12:19:46.909Z,2.57
2022-11-03T12:22:24.950Z,2.73
2022-11-03T12:25:01.482Z,3.13
2022-11-03T12:27:28.900Z,3.10
2022-11-03T12:30:00.999Z,2.93
2022-11-03T12:32:35.767Z,2.30
2022-11-03T12:35:04.119Z,3.07
2022-11-03T12:37:30.806Z,2.93
2022-11-03T12:39:57.422Z,2.57
2022-11-03T12:42:25.367Z,2.90
2022-11-03T12:44:52.611Z,2.63
2022-11-03T12:47:20.060Z,2.40
2022-11-03T12:49:46.656Z,2.93
2022-11-03T12:52:13.241Z,2.83
2022-11-03T12:54:42.940Z,2.63
2022-11-03T12:57:09.551Z,2.80
2022-11-03T12:59:36.239Z,2.80
2022-11-03T13:02:02.989Z,2.63
2022-11-03T13:04:29.595Z,2.80
2022-11-03T13:06:56.655Z,2.70
2022-11-03T13:09:23.311Z,2.90
2022-11-03T13:12:08.652Z,2.60
2022-11-03T13:14:35.210Z,2.97
2022-11-03T13:17:03.739Z,2.90
2022-11-03T13:19:30.455Z,2.50
2022-11-03T13:22:00.041Z,2.80
2022-11-03T13:24:26.649Z,2.57
2022-11-03T13:26:53.272Z,3.10
2022-11-03T13:29:19.934Z,3.00
2022-11-03T13:31:46.553Z,3.07
2022-11-03T13:34:13.140Z,2.57
2022-11-03T13:36:39.868Z,2.83
2022-11-03T13:39:06.531Z,2.50
2022-11-03T13:41:33.293Z,3.10
2022-11-03T13:43:59.949Z,3.00
2022-11-03T13:46:26.563Z,2.60
2022-11-03T13:49:40.924Z,2.40
2022-11-03T13:51:39.883Z,3.10
2022-11-03T13:59:43.801Z,3.10
2022-11-03T14:04:57.601Z,3.00
2022-11-03T14:07:24.250Z,2.90
2022-11-03T14:09:52.972Z,3.10
2022-11-03T14:12:31.725Z,3.33
2022-11-03T14:14:59.713Z,2.90
2022-11-03T14:17:26.372Z,3.17
2022-11-03T14:20:00.863Z,2.80
2022-11-03T14:22:32.908Z,3.60
2022-11-03T14:24:59.861Z,3.00
2022-11-03T14:27:26.615Z,3.27
2022-11-03T14:29:53.335Z,3.00
2022-11-03T14:32:20.294Z,3.17
2022-11-03T14:34:47.813Z,2.93
2022-11-03T14:37:15.170Z,2.80
2022-11-03T14:39:41.918Z,2.80
2022-11-03T14:42:17.106Z,2.70
2022-11-03T14:44:45.508Z,2.60
2022-11-03T14:47:14.322Z,2.57
2022-11-03T14:49:41.204Z,3.00
2022-11-03T14:52:08.082Z,2.83
2022-11-03T14:54:35.524Z,2.77
2022-11-03T14:57:03.134Z,3.20
2022-11-03T14:59:29.792Z,2.97
2022-11-03T15:01:57.091Z,3.00
2022-11-03T15:04:24.202Z,3.33
2022-11-03T15:06:50.851Z,2.67
2022-11-03T15:09:18.109Z,3.10
2022-11-03T15:11:45.178Z,3.53
2022-11-03T15:14:12.516Z,2.83
2022-11-03T15:16:40.037Z,2.93
2022-11-03T15:19:07.533Z,2.63
2022-11-03T15:21:40.978Z,3.10
2022-11-03T15:26:54.409Z,3.10
2022-11-03T15:29:22.912Z,2.60
2022-11-03T15:31:49.859Z,3.00
2022-11-03T15:34:16.688Z,3.17
2022-11-03T15:36:43.391Z,2.60
2022-11-03T15:39:09.979Z,3.40
2022-11-03T15:41:36.691Z,2.93
2022-11-03T15:44:03.337Z,2.80
2022-11-03T15:46:29.990Z,2.90
2022-11-03T15:49:00.744Z,3.23
2022-11-03T15:51:27.423Z,2.90
2022-11-03T15:53:58.512Z,3.03
2022-11-03T15:56:26.879Z,3.00
2022-11-03T15:58:53.650Z,3.17
2022-11-03T16:01:20.616Z,3.33
2022-11-03T16:03:47.390Z,2.87
2022-11-03T16:06:13.999Z,3.00
2022-11-03T16:08:42.155Z,3.37
2022-11-03T16:11:09.198Z,3.10
2022-11-03T16:13:36.122Z,3.67
2022-11-03T16:16:03.178Z,3.50
2022-11-03T16:18:29.804Z,3.03
2022-11-03T16:20:56.347Z,3.60
2022-11-03T16:23:22.939Z,3.57
2022-11-03T16:25:49.541Z,3.00
2022-11-03T16:28:16.124Z,2.87
2022-11-03T16:30:42.768Z,3.20
2022-11-03T16:33:10.061Z,3.30
2022-11-03T16:35:36.757Z,2.90
2022-11-03T16:38:03.363Z,3.00
2022-11-03T16:40:29.922Z,3.10
2022-11-03T16:42:56.494Z,3.40
2022-11-03T16:45:23.939Z,3.20
2022-11-03T16:47:50.762Z,4.20
2022-11-03T16:50:18.677Z,2.77
2022-11-03T16:52:46.580Z,3.40
2022-11-03T16:55:15.020Z,3.40
2022-11-03T16:57:42.411Z,3.43
2022-11-03T17:00:15.694Z,3.13
2022-11-03T17:02:45.044Z,3.43
2022-11-03T17:05:12.593Z,3.30
2022-11-03T17:07:39.669Z,3.67
2022-11-03T17:10:07.080Z,3.63
2022-11-03T17:12:33.830Z,3.93
2022-11-03T17:15:00.523Z,4.10
2022-11-03T17:17:27.253Z,4.20
2022-11-03T17:19:53.976Z,4.13
2022-11-03T17:22:22.218Z,4.00
2022-11-03T17:24:49.192Z,3.50
2022-11-03T17:27:19.584Z,3.90
2022-11-03T17:29:55.783Z,3.17
2022-11-03T17:32:28.848Z,3.67
2022-11-03T17:34:55.797Z,4.07
2022-11-03T17:37:23.667Z,4.30
2022-11-03T17:39:50.406Z,3.73
2022-11-03T17:42:25.206Z,3.80
2022-11-03T17:44:53.931Z,3.57
2022-11-03T17:47:21.133Z,3.80
2022-11-03T17:49:49.719Z,3.27
2022-11-03T17:52:24.990Z,3.63
2022-11-03T17:54:57.663Z,3.80
2022-11-03T17:57:25.191Z,3.67
2022-11-03T17:59:53.929Z,3.40
2022-11-03T18:02:22.739Z,3.70
2022-11-03T18:04:50.547Z,3.53
2022-11-03T18:07:25.151Z,3.73
2022-11-03T18:09:52.478Z,3.73
2022-11-03T18:12:49.802Z,3.57
2022-11-03T18:15:21.488Z,3.80
2022-11-03T18:17:48.128Z,4.77
2022-11-03T18:20:28.740Z,3.70
2022-11-03T18:23:10.640Z,3.67
2022-11-03T18:25:37.240Z,3.90
2022-11-03T18:28:04.311Z,4.13
2022-11-03T18:30:31.049Z,3.30
2022-11-03T18:32:57.847Z,4.13
2022-11-03T18:35:27.852Z,3.70
2022-11-03T18:37:55.840Z,3.90
2022-11-03T18:40:23.496Z,3.63
2022-11-03T18:42:50.267Z,3.87
2022-11-03T18:45:22.782Z,3.50
2022-11-03T18:47:52.075Z,4.40
2022-11-03T18:50:19.596Z,4.17
2022-11-03T18:52:52.123Z,3.53
2022-11-03T18:55:19.001Z,3.50
2022-11-03T18:57:53.483Z,3.83
2022-11-03T19:00:25.224Z,4.43
2022-11-03T19:02:52.406Z,4.57
2022-11-03T19:05:22.399Z,3.50
2022-11-03T19:07:52.931Z,4.10
2022-11-03T19:10:22.786Z,4.00
2022-11-03T19:12:51.774Z,3.50
2022-11-03T19:15:23.516Z,4.20
2022-11-03T19:17:52.160Z,4.03
2022-11-03T19:20:18.914Z,4.20
2022-11-03T19:22:47.682Z,4.23
2022-11-03T19:25:18.784Z,4.20
2022-11-03T19:27:49.325Z,4.60
2022-11-03T19:30:23.690Z,4.17
2022-11-03T19:32:55.122Z,4.33
2022-11-03T19:35:33.186Z,4.17
2022-11-03T19:38:04.831Z,4.40
2022-11-03T19:40:31.871Z,4.10
2022-11-03T19:42:59.026Z,4.90
2022-11-03T19:45:25.866Z,3.90
2022-11-03T19:50:47.174Z,3.83
2022-11-03T19:53:21.458Z,4.23
2022-11-03T19:55:48.510Z,3.80
2022-11-03T19:58:18.448Z,4.27
2022-11-03T20:00:46.097Z,4.07
2022-11-03T20:03:13.075Z,4.73
2022-11-03T20:05:44.984Z,4.77
2022-11-03T20:08:18.192Z,4.20
2022-11-03T20:10:47.514Z,4.27
2022-11-03T20:13:16.175Z,4.40
2022-11-03T20:15:42.928Z,4.20
2022-11-03T20:18:13.511Z,4.87
2022-11-03T20:20:40.924Z,4.50
2022-11-03T20:23:15.393Z,4.20
2022-11-03T20:25:42.475Z,4.50
2022-11-03T20:28:16.969Z,4.07
2022-11-03T20:30:43.649Z,4.33
2022-11-03T20:33:15.610Z,4.13
2022-11-03T20:35:42.900Z,4.77
2022-11-03T20:38:12.144Z,4.53
2022-11-03T20:40:39.245Z,4.63
2022-11-03T20:43:07.399Z,4.33
2022-11-03T20:45:34.232Z,4.87
2022-11-03T20:48:00.888Z,5.07
2022-11-03T20:50:29.917Z,4.03
2022-11-03T20:52:56.571Z,4.80
2022-11-03T20:55:27.577Z,4.40
2022-11-03T20:57:55.448Z,4.10
2022-11-03T21:00:24.676Z,4.87
2022-11-03T21:02:51.783Z,4.83
2022-11-03T21:05:20.527Z,4.80
2022-11-03T21:07:47.822Z,5.40
2022-11-03T21:10:20.173Z,4.03
2022-11-03T21:12:47.467Z,4.50
2022-11-03T21:15:37.876Z,4.90
2022-11-03T21:18:34.338Z,4.10
2022-11-03T21:21:01.757Z,4.37
2022-11-03T21:23:30.118Z,4.07
2022-11-03T21:25:57.001Z,5.30
2022-11-03T21:28:24.591Z,4.53
2022-11-03T21:30:53.214Z,4.70
2022-11-03T21:33:20.593Z,4.47
2022-11-03T21:35:48.120Z,4.37
2022-11-03T21:38:15.561Z,4.50
2022-11-03T21:40:46.883Z,3.90
2022-11-03T21:43:33.033Z,4.60
2022-11-03T21:46:18.019Z,4.50
2022-11-03T21:49:03.237Z,4.63
2022-11-03T21:51:29.927Z,4.70
2022-11-03T21:53:58.932Z,4.10
2022-11-03T21:56:26.628Z,4.10
2022-11-03T21:58:53.226Z,4.70
2022-11-03T22:01:20.955Z,4.30
2022-11-03T22:03:47.708Z,4.80
2022-11-03T22:06:14.464Z,4.23
2022-11-03T22:08:43.944Z,3.90
2022-11-03T22:11:22.649Z,4.10
2022-11-03T22:13:50.932Z,4.90
2022-11-03T22:16:36.127Z,4.60
2022-11-03T22:19:35.677Z,4.30
2022-11-03T22:22:23.589Z,4.43
2022-11-03T22:25:08.761Z,4.50
2022-11-03T22:27:35.466Z,4.43
2022-11-03T22:30:20.604Z,4.67
2022-11-03T22:32:53.076Z,4.70
2022-11-03T22:35:38.869Z,4.07
2022-11-03T22:38:11.818Z,4.37
2022-11-03T22:40:57.853Z,4.63
2022-11-03T22:43:44.614Z,4.20
2022-11-03T22:46:12.542Z,4.40
2022-11-03T22:48:39.277Z,4.50
2022-11-03T22:51:07.473Z,4.27
2022-11-03T22:53:53.722Z,4.10
2022-11-03T22:56:21.762Z,4.60
2022-11-03T22:58:48.473Z,4.83
2022-11-03T23:01:23.137Z,4.60
2022-11-03T23:03:50.237Z,3.90
2022-11-03T23:06:19.308Z,4.33
2022-11-03T23:08:47.358Z,4.10
2022-11-03T23:11:17.580Z,4.37
2022-11-03T23:13:54.562Z,4.60
2022-11-03T23:16:23.532Z,4.60
2022-11-03T23:19:08.868Z,4.47
2022-11-03T23:21:36.060Z,4.20
2022-11-03T23:24:21.891Z,3.60
2022-11-03T23:26:48.633Z,4.23
2022-11-03T23:29:15.593Z,3.83
2022-11-03T23:31:43.663Z,4.03
2022-11-03T23:34:11.527Z,4.47
2022-11-03T23:36:38.703Z,4.10
2022-11-03T23:39:06.262Z,3.90
2022-11-03T23:41:33.222Z,4.20
2022-11-03T23:44:00.107Z,3.97
2022-11-03T23:46:47.555Z,4.30
2022-11-03T23:49:14.736Z,4.00
2022-11-03T23:51:42.135Z,3.83
2022-11-03T23:54:10.984Z,4.20
2022-11-03T23:56:58.327Z,3.77
2022-11-03T23:59:25.641Z,3.70
